Time;durP1;ratioP1;P1;durP2;ratioP2;P2;SDS_P1;SDS_P2;PMS_P1;PMS_P2;Temp;Humidity;BMP_temperature;BMP_pressure;BME280_temperature;BME280_humidity;BME280_pressure;Samples;Min_cycle;Max_cycle;Signal;HPM_P1;HPM_P2
2021/07/13 04:36:19;;;;;;;5.50;3.77;;;22.30;47.70;;;;;;2405491;26;20469;-79
2021/07/13 04:39:02;;;;;;;3.90;3.17;;;22.30;47.80;;;;;;4876991;28;20474;-78
2021/07/13 04:41:33;;;;;;;5.60;3.57;;;22.30;47.80;;;;;;4917576;28;20477;-79
2021/07/13 04:44:25;;;;;;;4.90;3.63;;;22.30;47.90;;;;;;4957340;28;20429;-81
2021/07/13 04:47:25;;;;;;;3.90;3.60;;;22.30;48.00;;;;;;4924934;28;20497;-80
2021/07/13 04:50:27;;;;;;;5.13;4.20;;;22.30;48.10;;;;;;4900980;29;20487;-81
2021/07/13 04:53:47;;;;;;;4.73;3.40;;;22.30;47.80;;;;;;4919952;29;20488;-79
2021/07/13 04:57:13;;;;;;;4.47;3.30;;;22.20;48.10;;;;;;4904939;28;20451;-81
2021/07/13 05:00:38;;;;;;;3.67;3.37;;;22.20;48.20;;;;;;4899397;29;20430;-79
2021/07/13 05:04:14;;;;;;;6.47;4.10;;;22.10;48.50;;;;;;4875746;29;20457;-80
2021/07/13 05:11:06;;;;;;;5.43;3.67;;;22.10;48.90;;;;;;4865779;29;20569;-79
2021/07/13 05:13:51;;;;;;;3.93;3.63;;;22.10;49.20;;;;;;4860081;29;20450;-81
2021/07/13 05:20:12;;;;;;;3.50;3.20;;;22.10;49.50;;;;;;4845910;29;20479;-81
2021/07/13 05:23:47;;;;;;;3.17;2.87;;;22.10;48.90;;;;;;4825418;29;20911;-81
2021/07/13 05:27:00;;;;;;;3.50;3.30;;;22.10;48.70;;;;;;4857889;29;20451;-79
2021/07/13 05:33:35;;;;;;;5.83;3.87;;;22.10;49.30;;;;;;4761518;29;20457;-81
2021/07/13 05:36:31;;;;;;;3.63;3.33;;;22.00;49.40;;;;;;4796562;29;20438;-80
2021/07/13 05:39:05;;;;;;;3.50;3.30;;;22.00;50.00;;;;;;4794939;29;21041;-81
2021/07/13 05:42:28;;;;;;;3.50;3.30;;;22.00;50.20;;;;;;4793162;29;20453;-80
2021/07/13 05:45:24;;;;;;;3.90;3.70;;;22.00;50.30;;;;;;4798605;29;20479;-82
2021/07/13 05:52:29;;;;;;;3.53;3.33;;;22.00;50.50;;;;;;4815078;29;20944;-81
2021/07/13 05:55:59;;;;;;;3.23;3.03;;;22.00;50.10;;;;;;4783489;29;20473;-81
2021/07/13 05:58:25;;;;;;;3.70;3.47;;;22.00;49.70;;;;;;4831832;29;20497;-80
2021/07/13 06:01:35;;;;;;;5.33;4.83;;;22.00;49.60;;;;;;4863490;29;20526;-80
2021/07/13 06:08:46;;;;;;;10.90;4.47;;;22.10;50.00;;;;;;4850009;29;20985;-79
2021/07/13 06:11:39;;;;;;;4.50;4.25;;;22.00;50.00;;;;;;2187850;29;77698955;-80
2021/07/13 06:24:55;;;;;;;4.53;4.13;;;22.00;50.00;;;;;;5014599;27;20464;-80
2021/07/13 06:27:35;;;;;;;4.23;3.90;;;22.00;50.30;;;;;;5011184;28;20459;-80
2021/07/13 06:30:42;;;;;;;4.47;3.50;;;22.00;50.50;;;;;;4957446;28;21053;-81
2021/07/13 06:33:47;;;;;;;3.80;3.60;;;22.00;50.30;;;;;;4962081;28;20524;-81
2021/07/13 06:36:18;;;;;;;4.80;3.27;;;22.00;50.30;;;;;;4869248;28;20458;-80
2021/07/13 06:39:22;;;;;;;3.33;3.13;;;22.00;50.50;;;;;;4922116;28;20454;-80
2021/07/13 06:41:54;;;;;;;3.77;3.57;;;22.00;50.60;;;;;;4887905;29;20553;-79
2021/07/13 06:47:57;;;;;;;3.23;3.03;;;22.00;50.70;;;;;;4770277;29;20539;-81
2021/07/13 06:54:42;;;;;;;2.65;2.55;;;22.00;50.60;;;;;;2502464;29;69542530;-81
2021/07/13 06:57:49;;;;;;;5.80;3.27;;;22.00;50.50;;;;;;1304420;29;67009272;-80
2021/07/13 07:00:18;;;;;;;4.13;3.40;;;22.00;50.50;;;;;;3400915;29;24721718;-81
2021/07/13 07:02:58;;;;;;;3.13;2.93;;;22.00;50.50;;;;;;4569535;29;6081403;-80
2021/07/13 07:05:44;;;;;;;3.00;2.80;;;22.00;50.80;;;;;;4772395;29;20471;-81
2021/07/13 07:08:09;;;;;;;3.47;3.27;;;22.00;50.70;;;;;;4806685;29;20466;-80
2021/07/13 07:10:35;;;;;;;3.47;3.27;;;22.00;50.80;;;;;;4824728;29;20231;-81
2021/07/13 07:13:27;;;;;;;3.90;3.20;;;22.00;50.80;;;;;;4832497;29;20235;-81
2021/07/13 07:16:20;;;;;;;;;;;;;;;;;;;;;
2021/07/13 07:19:27;;;;;;;4.00;2.80;;;22.00;50.70;;;;;;4806589;29;20684;-81
2021/07/13 07:32:26;;;;;;;3.40;3.13;;;22.10;50.40;;;;;;4852274;29;20492;-80
2021/07/13 07:35:10;;;;;;;2.90;2.73;;;22.10;50.20;;;;;;4820129;29;20503;-81
2021/07/13 07:52:27;;;;;;;4.03;3.77;;;22.10;50.00;;;;;;4813270;29;20465;-80
2021/07/13 07:55:45;;;;;;;;;;;;;;;;;;;;;
2021/07/13 07:58:56;;;;;;;3.17;2.97;;;22.10;49.90;;;;;;4786296;29;20483;-81
2021/07/13 08:02:01;;;;;;;2.83;2.73;;;22.10;49.90;;;;;;4765743;29;20470;-81
2021/07/13 08:15:57;;;;;;;;;;;;;;;;;;;;;
2021/07/13 08:21:50;;;;;;;4.00;3.20;;;22.10;49.50;;;;;;433249;30;77367018;-81
2021/07/13 08:28:39;;;;;;;3.20;3.00;;;22.10;49.60;;;;;;4792402;29;20459;-80
2021/07/13 08:35:18;;;;;;;2.80;2.60;;;22.10;49.40;;;;;;4737860;30;20952;-79
2021/07/13 08:42:35;;;;;;;;;;;;;;;;;;;;;
2021/07/13 09:07:15;;;;;;;4.60;3.00;;;22.20;49.40;;;;;;4780012;30;20551;-79
2021/07/13 10:42:20;;;;;;;2.23;2.13;;;22.10;48.60;;;;;;4805766;29;20423;-80
2021/07/13 10:45:09;;;;;;;2.30;2.20;;;22.20;48.70;;;;;;4856369;29;20481;-80
2021/07/13 10:47:35;;;;;;;3.70;2.30;;;22.20;48.70;;;;;;4897508;29;21186;-80
2021/07/13 10:50:18;;;;;;;2.20;2.10;;;22.20;48.60;;;;;;4922325;29;20462;-80
2021/07/13 10:53:13;;;;;;;2.87;2.67;;;22.20;48.60;;;;;;4949939;28;20450;-81
2021/07/13 10:55:38;;;;;;;2.47;2.27;;;22.20;48.60;;;;;;4924335;28;20948;-80
2021/07/13 10:58:10;;;;;;;4.30;2.50;;;22.20;48.60;;;;;;4950440;28;20468;-81
2021/07/13 11:00:50;;;;;;;2.50;2.40;;;22.20;48.50;;;;;;4950653;28;20234;-80
2021/07/13 11:03:45;;;;;;;2.70;2.50;;;22.20;48.60;;;;;;4957270;28;20604;-81
2021/07/13 11:06:16;;;;;;;2.87;2.67;;;22.20;48.50;;;;;;4938966;28;20471;-80
2021/07/13 11:08:44;;;;;;;2.20;2.10;;;22.20;48.50;;;;;;4936999;28;20605;-80
2021/07/13 11:11:15;;;;;;;2.40;2.30;;;22.20;48.50;;;;;;4954134;28;20556;-81
2021/07/13 11:14:05;;;;;;;2.43;2.33;;;22.10;48.40;;;;;;4959055;28;20461;-80
2021/07/13 11:16:36;;;;;;;2.50;2.40;;;22.20;48.40;;;;;;4965872;28;20453;-80
2021/07/13 11:19:22;;;;;;;2.53;2.33;;;22.10;48.30;;;;;;4953742;28;21139;-80
2021/07/13 11:21:52;;;;;;;2.70;2.50;;;22.20;48.30;;;;;;4959849;28;20541;-80
2021/07/13 11:24:27;;;;;;;2.30;2.20;;;22.20;48.40;;;;;;4961638;28;21309;-80
2021/07/13 11:26:57;;;;;;;2.60;2.40;;;22.20;49.00;;;;;;4951831;28;20465;-79
2021/07/13 11:29:28;;;;;;;2.70;2.60;;;22.20;48.30;;;;;;4946582;28;20933;-81
2021/07/13 11:32:24;;;;;;;2.10;2.00;;;22.10;48.20;;;;;;4944110;28;20465;-80
2021/07/13 11:35:15;;;;;;;5.93;2.43;;;22.20;48.20;;;;;;4934359;28;20522;-81
2021/07/13 11:37:40;;;;;;;2.30;2.20;;;22.20;48.00;;;;;;4963085;28;20493;-80
2021/07/13 11:40:13;;;;;;;2.53;2.43;;;22.10;47.50;;;;;;4942255;28;20496;-80
2021/07/13 11:43:00;;;;;;;2.20;2.00;;;22.00;47.60;;;;;;4950437;28;20234;-80
2021/07/13 11:45:26;;;;;;;2.40;2.30;;;22.00;47.80;;;;;;4959514;28;20461;-80
2021/07/13 11:48:23;;;;;;;2.43;2.33;;;22.00;47.60;;;;;;4956995;28;20454;-80
2021/07/13 11:51:00;;;;;;;2.70;2.10;;;21.90;47.70;;;;;;4929193;28;20492;-81
2021/07/13 11:53:31;;;;;;;5.07;2.50;;;21.90;47.80;;;;;;4939393;28;20456;-81
2021/07/13 11:56:06;;;;;;;5.53;2.30;;;21.90;47.70;;;;;;4941407;28;20997;-80
2021/07/13 11:58:41;;;;;;;2.30;2.10;;;21.90;47.40;;;;;;4944352;28;20473;-80
2021/07/13 12:01:23;;;;;;;3.03;2.30;;;21.80;47.20;;;;;;4916381;28;20874;-80
2021/07/13 12:03:50;;;;;;;2.10;2.00;;;21.80;47.30;;;;;;4956770;28;20583;-80
2021/07/13 12:06:18;;;;;;;1.80;1.80;;;21.80;47.40;;;;;;4964567;28;20480;-81
2021/07/13 12:12:56;;;;;;;2.30;2.20;;;21.90;47.70;;;;;;4940805;28;20668;-81
2021/07/13 12:16:22;;;;;;;;;;;;;;;;;;;;;
2021/07/13 12:18:40;;;;;;;2.20;2.10;;;21.90;47.40;;;;;;5679939;22;20487;-80
2021/07/13 12:21:53;;;;;;;2.30;2.20;;;21.90;47.50;;;;;;4982550;28;20451;-80
2021/07/13 12:25:09;;;;;;;2.30;2.30;;;21.90;47.50;;;;;;4971009;28;20481;-80
2021/07/13 12:27:43;;;;;;;7.70;2.40;;;21.90;47.40;;;;;;4894999;29;21022;-79
2021/07/13 12:30:37;;;;;;;2.30;2.20;;;21.80;47.40;;;;;;4873565;29;20465;-79
2021/07/13 12:33:19;;;;;;;2.97;2.87;;;21.90;47.30;;;;;;4847577;29;20470;-79
2021/07/13 12:40:09;;;;;;;2.00;1.93;;;21.80;47.00;;;;;;4894106;29;20570;-79
2021/07/13 12:42:59;;;;;;;2.50;2.40;;;21.80;47.00;;;;;;4846243;29;20584;-79
2021/07/13 12:46:02;;;;;;;2.10;2.07;;;21.80;47.10;;;;;;4787794;29;20491;-81
2021/07/13 12:49:01;;;;;;;1.90;1.80;;;21.80;46.50;;;;;;4725468;29;20468;-81
2021/07/13 12:51:35;;;;;;;2.27;2.13;;;21.80;47.00;;;;;;4792917;29;20476;-80
2021/07/13 12:54:33;;;;;;;2.47;2.37;;;21.80;47.00;;;;;;4729041;29;20502;-80
2021/07/13 12:57:48;;;;;;;2.13;2.03;;;21.80;46.80;;;;;;4805948;29;20448;-80
2021/07/13 13:12:27;;;;;;;2.00;1.90;;;21.80;46.50;;;;;;4738325;30;20494;-79
2021/07/13 13:15:26;;;;;;;;;;;;;;;;;;;;;
2021/07/13 13:22:50;;;;;;;2.00;1.90;;;21.80;46.90;;;;;;2849901;30;56420534;-79
2021/07/13 13:26:15;;;;;;;1.90;1.80;;;21.80;46.50;;;;;;4694680;30;20217;-80
2021/07/13 13:30:02;;;;;;;1.70;1.60;;;21.70;46.30;;;;;;4652795;30;20970;-80
2021/07/13 13:33:58;;;;;;;2.30;1.90;;;21.80;46.80;;;;;;4741813;30;20441;-80
2021/07/13 13:36:42;;;;;;;2.00;1.90;;;21.80;46.70;;;;;;4709010;30;20510;-80
2021/07/13 13:47:13;;;;;;;;;;;;;;;;;;;;;
2021/07/13 14:03:06;;;;;;;1.90;1.80;;;21.80;46.30;;;;;;4746860;30;20853;-80
2021/07/13 14:06:23;;;;;;;1.90;1.80;;;21.80;46.50;;;;;;4746048;29;20511;-81
2021/07/13 14:08:54;;;;;;;2.17;2.07;;;21.80;46.30;;;;;;4760242;29;20484;-81
2021/07/13 14:12:19;;;;;;;1.50;1.50;;;21.80;46.30;;;;;;4799478;29;20454;-81
2021/07/13 14:21:57;;;;;;;1.60;1.60;;;21.80;46.10;;;;;;4710959;30;20549;-79
2021/07/13 14:29:02;;;;;;;2.13;2.03;;;21.80;45.40;;;;;;4744788;30;20447;-80
2021/07/13 14:32:58;;;;;;;1.90;1.90;;;21.80;45.60;;;;;;4796505;29;20877;-80
2021/07/13 14:36:11;;;;;;;2.40;1.90;;;21.80;45.80;;;;;;4732645;30;20471;-80
2021/07/13 14:46:10;;;;;;;2.17;2.07;;;21.70;45.10;;;;;;4688850;30;20493;-80
2021/07/13 14:49:55;;;;;;;2.50;2.40;;;21.80;45.50;;;;;;4714762;30;20449;-81
2021/07/13 14:56:49;;;;;;;1.80;1.70;;;21.80;45.40;;;;;;4713592;30;20844;-80
2021/07/13 15:13:58;;;;;;;2.40;2.30;;;21.70;44.90;;;;;;4872386;29;20934;-79
2021/07/13 15:16:32;;;;;;;2.40;2.30;;;21.70;45.30;;;;;;4879786;29;20510;-80
2021/07/13 15:19:14;;;;;;;2.13;2.03;;;21.80;44.90;;;;;;4878979;29;20505;-79
2021/07/13 15:22:19;;;;;;;;;;;;;;;;;;;;;
2021/07/13 15:25:02;;;;;;;2.70;2.60;;;21.70;44.90;;;;;;4909011;29;20460;-79
2021/07/13 15:27:42;;;;;;;2.30;2.20;;;21.70;44.30;;;;;;4868056;29;20461;-80
2021/07/13 15:30:53;;;;;;;2.30;2.20;;;21.70;44.80;;;;;;4826260;29;20485;-80
2021/07/13 15:33:49;;;;;;;2.53;2.40;;;21.70;44.80;;;;;;4845783;29;20544;-79
2021/07/13 15:37:00;;;;;;;2.20;2.10;;;21.70;44.90;;;;;;4786362;29;20456;-80
2021/07/13 15:39:44;;;;;;;2.23;2.13;;;21.70;44.90;;;;;;4760363;29;20494;-80
2021/07/13 15:45:51;;;;;;;2.43;2.33;;;21.70;45.20;;;;;;4833825;29;20850;-79
2021/07/13 15:48:43;;;;;;;2.43;2.33;;;21.70;44.90;;;;;;4765929;29;20473;-79
2021/07/13 15:51:10;;;;;;;2.40;2.30;;;21.70;44.90;;;;;;4770240;29;20555;-79
2021/07/13 15:53:45;;;;;;;2.10;2.00;;;21.70;44.90;;;;;;4756804;29;20481;-80
2021/07/13 15:56:42;;;;;;;3.70;2.40;;;21.70;45.00;;;;;;4823792;29;20498;-80
2021/07/13 15:59:21;;;;;;;2.40;2.30;;;21.70;44.90;;;;;;4809915;29;20466;-80
2021/07/13 16:01:53;;;;;;;2.60;2.40;;;21.70;45.20;;;;;;4750420;29;20479;-80
2021/07/13 16:04:26;;;;;;;2.30;2.20;;;21.80;45.00;;;;;;4786951;29;20485;-80
2021/07/13 16:07:35;;;;;;;2.07;1.87;;;21.70;44.90;;;;;;4742407;29;20481;-80
2021/07/13 16:10:24;;;;;;;2.30;2.20;;;21.70;45.10;;;;;;4760049;29;20450;-81
2021/07/13 16:13:29;;;;;;;2.90;2.43;;;21.70;45.00;;;;;;4713086;29;21042;-81
2021/07/13 16:16:35;;;;;;;3.30;2.03;;;21.70;44.80;;;;;;4762723;30;20519;-81
2021/07/13 16:19:12;;;;;;;2.30;2.20;;;21.70;44.80;;;;;;4734437;29;20495;-81
2021/07/13 16:22:12;;;;;;;2.33;2.23;;;21.70;44.80;;;;;;4801430;29;20481;-80
2021/07/13 16:25:22;;;;;;;2.30;2.20;;;21.70;44.70;;;;;;4734585;29;20509;-79
2021/07/13 16:32:45;;;;;;;2.80;2.60;;;21.70;44.80;;;;;;4780720;29;20437;-79
2021/07/13 16:35:40;;;;;;;2.67;2.47;;;21.70;44.50;;;;;;4741769;29;20484;-80
2021/07/13 16:38:17;;;;;;;2.60;2.20;;;21.70;44.50;;;;;;4759764;29;21034;-80
2021/07/13 16:41:08;;;;;;;2.70;2.30;;;21.70;44.50;;;;;;4825127;29;20464;-80
2021/07/13 16:49:24;;;;;;;2.18;2.08;;;21.70;44.20;;;;;;2276020;29;67061563;-79
2021/07/13 16:52:13;;;;;;;4.33;1.97;;;21.70;43.70;;;;;;4636276;29;4143317;-80
2021/07/13 16:54:41;;;;;;;2.40;2.20;;;21.70;44.10;;;;;;4696251;30;917835;-80
2021/07/13 16:57:07;;;;;;;2.10;2.00;;;21.70;44.00;;;;;;4625135;30;2089316;-80
2021/07/13 16:59:34;;;;;;;2.57;2.40;;;21.70;44.20;;;;;;4703884;30;82959;-79
2021/07/13 17:02:09;;;;;;;11.07;2.63;;;21.70;43.90;;;;;;4695062;30;276569;-79
2021/07/13 17:04:36;;;;;;;2.13;2.03;;;21.60;43.90;;;;;;4686353;29;20562;-80
2021/07/13 17:07:02;;;;;;;1.83;1.73;;;21.60;43.80;;;;;;4690963;30;20481;-80
2021/07/13 17:09:29;;;;;;;2.13;1.93;;;21.70;44.20;;;;;;4701640;30;20524;-80
2021/07/13 17:11:55;;;;;;;3.10;2.03;;;21.70;44.00;;;;;;4727162;30;20481;-80
2021/07/13 17:14:34;;;;;;;2.13;1.90;;;21.70;43.60;;;;;;4746869;29;20483;-80
2021/07/13 17:17:00;;;;;;;1.73;1.70;;;21.70;43.80;;;;;;4806404;29;21550;-80
2021/07/13 17:19:26;;;;;;;2.10;2.00;;;21.70;44.00;;;;;;4918869;29;20479;-80
2021/07/13 17:21:59;;;;;;;1.70;1.70;;;21.70;43.70;;;;;;4898045;29;20464;-80
2021/07/13 17:24:38;;;;;;;4.40;2.43;;;21.70;43.50;;;;;;4899012;29;20601;-80
2021/07/13 17:30:34;;;;;;;33.47;30.23;;;21.60;43.50;;;;;;4924830;28;20897;-80
2021/07/13 17:33:32;;;;;;;30.60;28.00;;;21.60;43.30;;;;;;4970642;28;20532;-81
2021/07/13 17:39:35;;;;;;;115.23;104.77;;;21.60;43.60;;;;;;4852227;29;20531;-80
2021/07/13 17:42:43;;;;;;;91.63;83.43;;;21.60;44.20;;;;;;4831404;29;20471;-80
2021/07/13 17:45:10;;;;;;;145.40;132.60;;;21.60;44.00;;;;;;4798333;29;20471;-81
2021/07/13 17:48:34;;;;;;;112.57;102.73;;;21.60;44.20;;;;;;4835024;29;20462;-81
2021/07/13 17:51:26;;;;;;;117.10;106.33;;;21.60;43.70;;;;;;4900631;29;20416;-81
2021/07/13 17:54:37;;;;;;;101.27;92.37;;;21.60;44.00;;;;;;4893624;29;20483;-81
2021/07/13 17:57:22;;;;;;;110.43;100.63;;;21.70;44.10;;;;;;4870759;29;20933;-82
2021/07/13 18:07:07;;;;;;;72.93;66.13;;;21.60;43.90;;;;;;4802803;29;20483;-80
2021/07/13 18:09:42;;;;;;;81.10;73.80;;;21.60;43.60;;;;;;4763596;29;231221;-81
2021/07/13 18:12:31;;;;;;;77.37;70.43;;;21.60;44.00;;;;;;4742585;29;20461;-82
2021/07/13 18:15:44;;;;;;;77.03;69.63;;;21.60;44.00;;;;;;4737002;30;21412;-80
2021/07/13 18:19:02;;;;;;;66.40;59.93;;;21.60;44.00;;;;;;4755578;29;20453;-82
2021/07/13 18:25:24;;;;;;;72.10;65.73;;;21.60;44.00;;;;;;4760214;30;20480;-80
2021/07/13 18:27:51;;;;;;;62.20;56.40;;;21.70;44.20;;;;;;4740785;30;20478;-80
2021/07/13 18:30:43;;;;;;;59.83;54.33;;;21.60;44.10;;;;;;4751064;29;20469;-80
2021/07/13 18:37:16;;;;;;;46.33;41.90;;;21.70;44.30;;;;;;4884449;22;20520;-81
2021/07/13 18:39:49;;;;;;;43.27;39.33;;;21.70;44.00;;;;;;5010576;28;20449;-80
2021/07/13 18:42:27;;;;;;;;;;;;;;;;;;;;;
2021/07/13 18:45:43;;;;;;;33.30;30.10;;;21.60;43.80;;;;;;5050594;28;20461;-81
2021/07/13 18:49:13;;;;;;;33.40;30.43;;;21.60;43.60;;;;;;5012130;28;20466;-80
2021/07/13 18:52:41;;;;;;;31.07;28.03;;;21.60;43.90;;;;;;4900770;29;20429;-80
2021/07/13 18:56:05;;;;;;;27.93;25.23;;;21.70;44.30;;;;;;4812632;29;20480;-81
2021/07/13 19:02:09;;;;;;;35.43;32.23;;;21.60;44.00;;;;;;4799822;29;20471;-81
2021/07/13 19:04:47;;;;;;;31.50;28.57;;;21.70;44.50;;;;;;4780479;29;20488;-82
2021/07/13 19:07:51;;;;;;;30.37;27.63;;;21.70;44.50;;;;;;4769277;29;20497;-81
2021/07/13 19:11:11;;;;;;;29.23;26.67;;;21.70;44.30;;;;;;4687111;30;20534;-81
2021/07/13 19:21:17;;;;;;;21.03;19.00;;;21.70;44.40;;;;;;4713258;30;20441;-81
2021/07/13 19:24:26;;;;;;;17.67;16.07;;;21.70;44.30;;;;;;4724511;30;20473;-81
2021/07/13 19:27:52;;;;;;;17.73;16.23;;;21.70;44.50;;;;;;4718375;30;20478;-81
2021/07/13 19:31:33;;;;;;;15.13;13.83;;;21.70;44.60;;;;;;4670156;30;20445;-80
2021/07/13 19:37:29;;;;;;;15.17;13.60;;;21.70;44.60;;;;;;4679958;30;20444;-81
2021/07/13 19:46:10;;;;;;;12.47;11.47;;;21.80;44.80;;;;;;4698972;30;20488;-81
2021/07/13 19:49:34;;;;;;;11.10;10.20;;;21.80;44.40;;;;;;4711818;30;20480;-81
2021/07/13 19:53:25;;;;;;;10.33;9.43;;;21.70;44.60;;;;;;4776492;29;20465;-81
2021/07/13 19:56:11;;;;;;;8.23;7.63;;;21.70;44.20;;;;;;4745648;29;20477;-80
2021/07/13 19:59:07;;;;;;;8.47;7.77;;;21.70;44.00;;;;;;4745176;29;20523;-81
2021/07/13 20:01:35;;;;;;;6.67;6.27;;;21.70;44.20;;;;;;4777753;29;21010;-81
2021/07/13 20:04:04;;;;;;;6.63;6.17;;;21.60;44.00;;;;;;4742994;29;20489;-81
2021/07/13 20:06:52;;;;;;;6.03;5.53;;;21.60;43.90;;;;;;4783931;29;20560;-80
2021/07/13 20:09:50;;;;;;;6.90;6.30;;;21.60;44.00;;;;;;4794676;29;21035;-81
2021/07/13 20:13:29;;;;;;;6.40;5.90;;;21.60;44.20;;;;;;4778028;29;20483;-80
2021/07/13 20:16:04;;;;;;;6.33;5.93;;;21.60;44.30;;;;;;4820343;29;20478;-81
2021/07/13 20:18:56;;;;;;;5.57;5.17;;;21.70;44.20;;;;;;4807313;29;20486;-81
2021/07/13 20:25:11;;;;;;;4.93;4.63;;;21.60;43.60;;;;;;4834223;29;20880;-81
2021/07/13 20:28:14;;;;;;;4.63;4.20;;;21.50;43.30;;;;;;4875619;29;20485;-81
2021/07/13 20:30:53;;;;;;;3.67;3.47;;;21.50;43.40;;;;;;4851635;29;20467;-81
2021/07/13 20:33:33;;;;;;;4.53;4.20;;;21.50;43.70;;;;;;4849984;29;20478;-81
2021/07/13 20:36:26;;;;;;;4.03;3.73;;;21.50;43.40;;;;;;4800589;29;20469;-81
2021/07/13 20:42:16;;;;;;;4.87;4.57;;;21.50;43.70;;;;;;4869725;29;20450;-82
2021/07/13 20:45:19;;;;;;;4.33;4.03;;;21.60;43.50;;;;;;4866770;29;20985;-81
2021/07/13 20:48:45;;;;;;;4.13;3.83;;;21.60;43.80;;;;;;4881172;29;20991;-81
2021/07/13 20:51:12;;;;;;;3.80;3.60;;;21.60;44.00;;;;;;4909223;29;21200;-81
2021/07/13 20:54:12;;;;;;;3.83;3.50;;;21.60;44.10;;;;;;4908054;29;20468;-81
2021/07/13 20:57:26;;;;;;;3.47;3.27;;;21.60;43.40;;;;;;4833597;29;20471;-80
2021/07/13 21:01:03;;;;;;;4.17;3.90;;;21.70;44.00;;;;;;4839541;29;20440;-80
2021/07/13 21:06:45;;;;;;;3.93;3.63;;;21.70;44.00;;;;;;4887802;29;20832;-80
2021/07/13 21:09:52;;;;;;;3.53;3.30;;;21.70;44.00;;;;;;4821365;29;20495;-79
2021/07/13 21:13:09;;;;;;;3.40;3.20;;;21.60;43.70;;;;;;4855263;29;20548;-79
2021/07/13 21:23:10;;;;;;;3.40;3.20;;;21.70;43.80;;;;;;4887269;29;20404;-80
2021/07/13 21:26:12;;;;;;;3.90;3.43;;;21.70;43.80;;;;;;4802817;29;20457;-80
2021/07/13 21:29:23;;;;;;;3.70;3.30;;;21.70;43.80;;;;;;4786326;29;20465;-80
2021/07/13 21:32:15;;;;;;;4.23;3.90;;;21.70;43.90;;;;;;4831445;29;20438;-80
2021/07/13 21:38:51;;;;;;;4.10;3.70;;;21.70;43.80;;;;;;4832139;29;20904;-80
2021/07/13 21:41:32;;;;;;;4.00;3.70;;;21.70;43.80;;;;;;4847133;29;20473;-81
2021/07/13 21:44:18;;;;;;;4.80;3.73;;;21.70;43.90;;;;;;4820707;29;20479;-79
2021/07/13 21:47:02;;;;;;;2.97;2.77;;;21.70;43.90;;;;;;4781753;28;20491;-79
2021/07/13 21:50:20;;;;;;;3.60;3.30;;;21.70;43.90;;;;;;4909097;28;20478;-79
2021/07/13 22:00:38;;;;;;;3.10;2.90;;;21.60;44.00;;;;;;4889475;29;20436;-80
2021/07/13 22:03:17;;;;;;;4.10;2.83;;;21.70;44.10;;;;;;4882403;28;20628;-79
2021/07/13 22:10:06;;;;;;;3.07;2.87;;;21.70;44.00;;;;;;4923670;28;20525;-79
2021/07/13 22:12:57;;;;;;;3.10;2.90;;;21.60;43.90;;;;;;4938891;28;20840;-79
2021/07/13 22:15:50;;;;;;;2.90;2.70;;;21.70;44.00;;;;;;4903894;28;20457;-79
2021/07/13 22:18:27;;;;;;;3.50;2.87;;;21.60;43.90;;;;;;4919806;28;21478;-79
2021/07/13 22:21:19;;;;;;;2.87;2.77;;;21.60;43.90;;;;;;4844782;29;20682;-79
2021/07/13 22:27:30;;;;;;;3.30;3.10;;;21.60;43.90;;;;;;4904349;29;20831;-79
2021/07/13 22:41:29;;;;;;;2.97;2.77;;;21.60;44.00;;;;;;4680657;29;4141703;-80
2021/07/13 22:44:48;;;;;;;3.00;2.80;;;21.60;44.00;;;;;;4750681;29;271187;-80
2021/07/13 22:47:40;;;;;;;3.00;2.80;;;21.60;44.00;;;;;;4700253;29;3089359;-80
2021/07/13 22:50:21;;;;;;;3.03;2.83;;;21.60;44.00;;;;;;4643578;29;3117869;-80
2021/07/13 22:52:56;;;;;;;2.50;2.40;;;21.60;44.00;;;;;;4801825;29;20230;-81
2021/07/13 22:56:02;;;;;;;2.70;2.60;;;21.60;44.00;;;;;;4821336;29;20476;-80
2021/07/13 23:03:03;;;;;;;4.30;3.63;;;21.60;44.00;;;;;;4833153;29;20448;-81
2021/07/13 23:05:51;;;;;;;2.70;2.50;;;21.60;44.00;;;;;;4811226;29;20469;-81
2021/07/13 23:08:24;;;;;;;2.53;2.43;;;21.60;44.10;;;;;;4707732;29;20530;-81
2021/07/13 23:11:33;;;;;;;2.77;2.57;;;21.60;44.10;;;;;;4729873;29;20476;-80
2021/07/13 23:18:13;;;;;;;2.83;2.67;;;21.60;44.10;;;;;;4882726;29;20501;-81
2021/07/13 23:20:42;;;;;;;4.93;2.67;;;21.60;44.10;;;;;;4825693;29;20464;-81
2021/07/13 23:23:35;;;;;;;2.80;2.60;;;21.60;44.10;;;;;;4860274;29;20555;-80
2021/07/13 23:26:51;;;;;;;2.80;2.60;;;21.60;44.10;;;;;;4857512;29;20464;-80
2021/07/13 23:29:42;;;;;;;2.80;2.60;;;21.60;44.10;;;;;;4866178;29;20461;-80
2021/07/13 23:32:35;;;;;;;2.50;2.40;;;21.60;44.10;;;;;;4826750;29;21293;-80
2021/07/13 23:42:28;;;;;;;2.70;2.50;;;21.60;44.10;;;;;;4859851;29;20909;-81
2021/07/13 23:45:30;;;;;;;2.57;2.47;;;21.50;44.00;;;;;;4825842;29;20492;-82
2021/07/13 23:48:22;;;;;;;2.50;2.40;;;21.60;44.10;;;;;;4762836;29;20467;-80
2021/07/13 23:51:57;;;;;;;2.20;2.10;;;21.60;44.10;;;;;;4843077;29;20487;-81
2021/07/13 23:58:42;;;;;;;2.90;2.80;;;21.60;44.10;;;;;;4797680;29;20460;-80
